KIPT/IPT METAR and TAF weather

Enter ICAO airport designator
Station Type Date Time Source
KIPT METAR 2022/09/26 08:54 UTC NOAA

KIPT 260854Z AUTO 00000KT 8SM FEW002 SCT025 12/11 A2963 RMK AO2 SLP032 T01170106 56001


Station Type Date Time Source
KIPT Decoded METAR 2022/09/26 08:54 UTC NOAA

WILLIAMSPORT-LYCOMING COUNTY, PA, United States (KIPT) 41-15N 076-55W 164M
Sep 26, 2022 - 04:54 AM EDT / 2022.09.26 0854 UTC
Wind: Calm:0
Visibility: 8 mile(s):0
Sky conditions: partly cloudy
Temperature: 53.1 F (11.7 C)
Dew Point: 51.1 F (10.6 C)
Relative Humidity: 92%
Pressure (altimeter): 29.63 in. Hg (1003 hPa)
Pressure tendency: 0.00 inches (0.1 hPa) lower than three hours ago
ob: KIPT 260854Z AUTO 00000KT 8SM FEW002 SCT025 12/11 A2963 RMK AO2 SLP032 T01170106 56001
cycle: 9

Station Type Date Time Source
KIPT TAF 2022/09/26 07:06 UTC NOAA

TAF
AMD KIPT 260704Z 2607/2706 VRB05KT 3SM BR SCT002
FM261400 24010G20KT P6SM BKN040
FM261600 25012G24KT P6SM SCT050
FM270300 23008G15KT P6SM SCT040

Example: see airport list